createdAt,value
2018-10-09T00:01:48.250Z,8.37
2018-10-09T00:04:51.859Z,8.24
2018-10-09T00:07:55.369Z,8.39
2018-10-09T00:10:58.934Z,8.38
2018-10-09T00:14:02.580Z,8.29
2018-10-09T00:17:06.196Z,8.30
2018-10-09T00:20:09.784Z,8.22
2018-10-09T00:23:13.293Z,8.07
2018-10-09T00:26:16.846Z,8.16
2018-10-09T00:29:20.429Z,8.38
2018-10-09T00:32:24.090Z,8.08
2018-10-09T00:35:27.662Z,8.01
2018-10-09T00:38:31.183Z,7.90
2018-10-09T00:41:34.707Z,7.83
2018-10-09T00:44:38.202Z,7.83
2018-10-09T00:47:42.027Z,7.75
2018-10-09T00:50:46.055Z,7.64
2018-10-09T00:53:49.660Z,7.65
2018-10-09T00:56:53.180Z,7.56
2018-10-09T00:59:56.702Z,7.48
2018-10-09T01:03:00.294Z,7.44
2018-10-09T01:06:04.054Z,7.48
2018-10-09T01:09:08.770Z,7.56
2018-10-09T01:12:12.370Z,7.52
2018-10-09T01:15:16.045Z,7.52
2018-10-09T01:18:19.699Z,7.55
2018-10-09T01:21:23.299Z,7.75
2018-10-09T01:24:26.824Z,7.82
2018-10-09T01:27:30.444Z,7.91
2018-10-09T01:30:34.616Z,7.84
2018-10-09T01:33:38.152Z,7.90
2018-10-09T01:36:41.769Z,8.07
2018-10-09T01:39:45.396Z,8.29
2018-10-09T01:42:48.880Z,8.42
2018-10-09T01:45:52.522Z,8.36
2018-10-09T01:48:55.977Z,8.34
2018-10-09T01:51:59.662Z,8.28
2018-10-09T01:55:03.381Z,8.27
2018-10-09T01:58:06.945Z,8.32
2018-10-09T02:01:10.520Z,8.21
2018-10-09T02:04:13.990Z,8.26
2018-10-09T02:07:17.516Z,8.28
2018-10-09T02:10:21.051Z,8.32
2018-10-09T02:13:24.705Z,8.39
2018-10-09T02:16:28.318Z,8.35
2018-10-09T02:19:31.919Z,8.21
2018-10-09T02:22:35.436Z,8.15
2018-10-09T02:25:39.083Z,8.14
2018-10-09T02:28:42.589Z,8.19
2018-10-09T02:31:46.131Z,7.98
2018-10-09T02:34:49.632Z,8.06
2018-10-09T02:37:53.157Z,8.02
2018-10-09T02:40:56.666Z,8.08
2018-10-09T02:44:00.221Z,8.06
2018-10-09T02:47:04.020Z,7.92
2018-10-09T02:50:07.852Z,7.88
2018-10-09T02:53:11.666Z,7.82
2018-10-09T02:56:15.270Z,7.70
2018-10-09T02:59:18.762Z,7.72
2018-10-09T03:02:22.288Z,7.82
2018-10-09T03:05:25.924Z,7.89
2018-10-09T03:08:29.415Z,7.98
2018-10-09T03:11:33.019Z,8.01
2018-10-09T03:14:36.743Z,8.15
2018-10-09T03:17:40.379Z,8.17
2018-10-09T03:20:43.903Z,7.98
2018-10-09T03:23:47.410Z,8.16
2018-10-09T03:26:51.068Z,8.19
2018-10-09T03:29:54.623Z,8.12
2018-10-09T03:32:58.263Z,8.05
2018-10-09T03:36:01.797Z,8.04
2018-10-09T03:39:07.556Z,7.87
2018-10-09T03:42:11.091Z,7.73
2018-10-09T03:45:14.833Z,7.77
2018-10-09T03:48:18.423Z,7.65
2018-10-09T03:51:21.932Z,7.76
2018-10-09T03:54:25.601Z,7.60
2018-10-09T03:57:29.312Z,7.71
2018-10-09T04:00:32.831Z,7.62
2018-10-09T04:03:36.387Z,7.59
2018-10-09T04:06:39.957Z,7.49
2018-10-09T04:09:43.605Z,7.52
2018-10-09T04:12:47.319Z,7.64
2018-10-09T04:15:50.841Z,7.57
2018-10-09T04:18:54.481Z,7.49
2018-10-09T04:21:57.991Z,7.50
2018-10-09T04:25:01.643Z,7.57
2018-10-09T04:28:05.122Z,7.38
2018-10-09T04:31:08.612Z,7.42
2018-10-09T04:34:12.210Z,7.33
2018-10-09T04:37:15.809Z,7.35
2018-10-09T04:40:19.308Z,7.39
2018-10-09T04:43:22.979Z,7.32
2018-10-09T04:46:26.558Z,7.40
2018-10-09T04:49:30.148Z,7.42
2018-10-09T04:52:33.603Z,7.48
2018-10-09T04:55:37.297Z,7.44
2018-10-09T04:58:40.932Z,7.41
2018-10-09T05:01:44.487Z,7.34
2018-10-09T05:04:47.989Z,7.29
2018-10-09T05:07:51.868Z,7.32
2018-10-09T05:10:55.457Z,7.44
2018-10-09T05:13:59.085Z,7.34
2018-10-09T05:17:02.733Z,7.42
2018-10-09T05:20:07.698Z,7.56
2018-10-09T05:23:11.443Z,7.65
2018-10-09T05:26:15.024Z,7.64
2018-10-09T05:29:18.648Z,7.83
2018-10-09T05:32:22.159Z,7.85
2018-10-09T05:35:25.775Z,7.61
2018-10-09T05:38:29.398Z,7.60
2018-10-09T05:41:32.974Z,7.58
2018-10-09T05:44:36.554Z,7.55
2018-10-09T05:47:40.209Z,7.49
2018-10-09T05:50:43.689Z,7.34
2018-10-09T05:53:47.433Z,7.29
2018-10-09T05:56:51.029Z,7.52
2018-10-09T05:59:55.222Z,7.75
2018-10-09T06:02:58.876Z,7.83
2018-10-09T06:06:02.672Z,7.94
2018-10-09T06:09:08.596Z,8.08
2018-10-09T06:12:12.088Z,8.13
2018-10-09T06:15:15.715Z,8.16
2018-10-09T06:18:19.308Z,8.29
2018-10-09T06:21:22.976Z,8.35
2018-10-09T06:24:26.529Z,8.50
2018-10-09T06:27:30.441Z,8.70
2018-10-09T06:30:34.590Z,8.75
2018-10-09T06:33:38.275Z,8.79
2018-10-09T06:36:41.815Z,8.77
2018-10-09T06:39:45.549Z,8.82
2018-10-09T06:42:49.223Z,8.88
2018-10-09T06:45:52.796Z,8.98
2018-10-09T06:48:56.435Z,9.06
2018-10-09T06:51:59.896Z,9.26
2018-10-09T06:55:03.540Z,9.39
2018-10-09T06:58:07.241Z,9.51
2018-10-09T07:01:10.857Z,9.53
2018-10-09T07:04:14.465Z,9.51
2018-10-09T07:07:18.091Z,9.48
2018-10-09T07:10:21.649Z,9.49
2018-10-09T07:13:25.216Z,9.59
2018-10-09T07:16:28.771Z,9.63
2018-10-09T07:19:32.389Z,9.64
2018-10-09T07:22:36.041Z,9.67
2018-10-09T07:25:39.555Z,9.75
2018-10-09T07:28:43.114Z,9.91
2018-10-09T07:31:46.673Z,9.98
2018-10-09T07:34:50.405Z,10.09
2018-10-09T07:37:54.021Z,10.25
2018-10-09T07:40:57.582Z,10.34
2018-10-09T07:44:01.250Z,10.38
2018-10-09T07:47:04.819Z,10.52
2018-10-09T07:50:08.446Z,10.86
2018-10-09T07:53:12.153Z,11.14
2018-10-09T07:56:15.791Z,11.24
2018-10-09T07:59:19.308Z,11.31
2018-10-09T08:02:22.905Z,11.12
2018-10-09T08:05:26.512Z,11.02
2018-10-09T08:08:30.223Z,11.04
2018-10-09T08:11:33.751Z,11.36
2018-10-09T08:14:37.338Z,11.51
2018-10-09T08:17:40.976Z,11.59
2018-10-09T08:20:44.518Z,11.82
2018-10-09T08:23:48.098Z,11.93
2018-10-09T08:26:51.765Z,11.99
2018-10-09T08:29:55.302Z,11.97
2018-10-09T08:32:59.036Z,11.97
2018-10-09T08:36:03.510Z,11.92
2018-10-09T08:39:07.336Z,11.98
2018-10-09T08:42:11.050Z,11.71
2018-10-09T08:45:14.701Z,11.77
2018-10-09T08:48:18.276Z,11.89
2018-10-09T08:51:22.761Z,11.97
2018-10-09T08:54:26.422Z,12.01
2018-10-09T08:57:30.059Z,11.85
2018-10-09T09:00:33.796Z,12.10
2018-10-09T09:03:37.314Z,12.10
2018-10-09T09:06:40.883Z,12.22
2018-10-09T09:09:44.452Z,12.46
2018-10-09T09:12:48.082Z,12.38
2018-10-09T09:15:51.702Z,12.57
2018-10-09T09:18:55.376Z,12.82
2018-10-09T09:21:59.127Z,12.80
2018-10-09T09:25:02.719Z,13.04
2018-10-09T09:28:06.284Z,13.05
2018-10-09T09:31:09.912Z,13.05
2018-10-09T09:34:13.473Z,13.07
2018-10-09T09:37:17.077Z,13.15
2018-10-09T09:40:20.692Z,13.04
2018-10-09T09:43:24.473Z,13.04
2018-10-09T09:46:28.022Z,13.11
2018-10-09T09:49:31.664Z,13.20
2018-10-09T09:52:35.251Z,13.30
2018-10-09T09:55:38.993Z,13.54
2018-10-09T09:58:42.942Z,13.75
2018-10-09T10:01:46.380Z,13.78
2018-10-09T10:04:50.192Z,13.96
2018-10-09T10:07:53.876Z,14.11
2018-10-09T10:10:57.621Z,14.08
2018-10-09T10:14:01.270Z,14.35
2018-10-09T10:17:04.931Z,14.59
2018-10-09T10:20:09.000Z,14.49
2018-10-09T10:23:12.633Z,14.47
2018-10-09T10:26:16.257Z,14.83
2018-10-09T10:29:19.967Z,14.80
2018-10-09T10:32:23.449Z,14.88
2018-10-09T10:35:27.090Z,14.93
2018-10-09T10:38:30.653Z,15.10
2018-10-09T10:41:34.154Z,15.39
2018-10-09T10:44:37.773Z,15.61
2018-10-09T10:47:41.429Z,15.42
2018-10-09T10:50:45.092Z,15.74
2018-10-09T10:53:48.677Z,15.96
2018-10-09T10:56:52.289Z,16.05
2018-10-09T10:59:55.868Z,16.16
2018-10-09T11:02:59.473Z,16.27
2018-10-09T11:06:03.114Z,16.32
2018-10-09T11:09:09.320Z,16.43
2018-10-09T11:12:12.918Z,16.42
2018-10-09T11:15:16.564Z,16.32
2018-10-09T11:18:20.226Z,16.32
2018-10-09T11:21:24.061Z,16.22
2018-10-09T11:24:27.603Z,16.18
2018-10-09T11:27:31.319Z,16.13
2018-10-09T11:30:34.913Z,16.24
2018-10-09T11:33:38.649Z,16.30
2018-10-09T11:36:42.161Z,16.28
2018-10-09T11:39:45.895Z,16.17
2018-10-09T11:42:49.497Z,16.18
2018-10-09T11:45:53.042Z,15.95
2018-10-09T11:48:56.538Z,16.08
2018-10-09T11:52:00.140Z,16.13
2018-10-09T11:55:03.995Z,16.13
2018-10-09T11:58:07.610Z,16.22
2018-10-09T12:01:11.370Z,16.06
2018-10-09T12:04:15.001Z,16.10
2018-10-09T12:07:18.704Z,16.08
2018-10-09T12:10:22.312Z,16.12
2018-10-09T12:13:25.812Z,15.76
2018-10-09T12:16:29.331Z,15.75
2018-10-09T12:19:33.014Z,15.73
2018-10-09T12:22:36.553Z,15.89
2018-10-09T12:25:40.243Z,15.55
2018-10-09T12:28:44.384Z,15.71
2018-10-09T12:31:48.020Z,15.77
2018-10-09T12:34:51.614Z,16.07
2018-10-09T12:37:55.353Z,15.92
2018-10-09T12:40:58.983Z,16.03
2018-10-09T12:44:02.682Z,16.12
2018-10-09T12:47:06.335Z,16.28
2018-10-09T12:50:10.543Z,16.39
2018-10-09T12:53:14.204Z,16.32
2018-10-09T12:56:17.775Z,16.37
2018-10-09T12:59:21.348Z,16.49
2018-10-09T13:02:24.906Z,16.48
2018-10-09T13:05:28.703Z,16.44
2018-10-09T13:08:32.404Z,16.51
2018-10-09T13:11:36.135Z,16.70
2018-10-09T13:14:39.784Z,16.62
2018-10-09T13:17:43.557Z,16.80
2018-10-09T13:20:47.186Z,16.99
2018-10-09T13:23:51.227Z,16.88
2018-10-09T13:26:54.882Z,17.00
2018-10-09T13:29:58.774Z,17.15
2018-10-09T13:33:02.409Z,16.91
2018-10-09T13:36:06.322Z,16.58
2018-10-09T13:39:09.983Z,16.62
2018-10-09T13:42:13.644Z,17.05
2018-10-09T13:45:17.383Z,17.09
2018-10-09T13:48:21.135Z,17.07
2018-10-09T13:51:24.709Z,17.10
2018-10-09T13:54:29.304Z,17.18
2018-10-09T13:57:32.870Z,17.09
2018-10-09T14:00:36.456Z,17.37
2018-10-09T14:03:40.129Z,17.63
2018-10-09T14:06:43.768Z,17.38
2018-10-09T14:09:47.338Z,17.39
2018-10-09T14:12:51.241Z,17.50
2018-10-09T14:15:54.823Z,17.59
2018-10-09T14:18:58.425Z,17.76
2018-10-09T14:22:02.027Z,17.76
2018-10-09T14:25:06.121Z,17.79
2018-10-09T14:28:09.835Z,17.78
2018-10-09T14:31:13.498Z,17.56
2018-10-09T14:34:17.166Z,17.65
2018-10-09T14:37:20.764Z,17.81
2018-10-09T14:40:24.335Z,17.81
2018-10-09T14:43:28.019Z,17.65
2018-10-09T14:46:31.730Z,17.68
2018-10-09T14:49:35.370Z,17.72
2018-10-09T14:52:39.049Z,17.80
2018-10-09T14:55:42.687Z,17.34
2018-10-09T14:58:46.345Z,17.44
2018-10-09T15:01:50.156Z,17.37
2018-10-09T15:04:53.673Z,17.05
2018-10-09T15:07:57.241Z,16.88
2018-10-09T15:11:00.850Z,16.80
2018-10-09T15:14:04.426Z,16.78
2018-10-09T15:17:08.324Z,16.61
2018-10-09T15:20:12.862Z,16.42
2018-10-09T15:23:16.500Z,16.18
2018-10-09T15:26:20.174Z,16.08
2018-10-09T15:29:23.820Z,15.96
2018-10-09T15:32:27.443Z,15.82
2018-10-09T15:35:31.273Z,15.67
2018-10-09T15:38:34.782Z,15.57
2018-10-09T15:41:38.933Z,15.52
2018-10-09T15:44:42.772Z,15.44
2018-10-09T15:47:46.516Z,15.39
2018-10-09T15:50:50.303Z,15.32
2018-10-09T15:53:54.091Z,15.17
2018-10-09T15:56:57.883Z,15.07
2018-10-09T16:00:01.447Z,15.02
2018-10-09T16:03:05.356Z,14.97
2018-10-09T16:06:09.048Z,15.02
2018-10-09T16:09:12.758Z,14.93
2018-10-09T16:12:16.383Z,14.80
2018-10-09T16:15:20.071Z,14.80
2018-10-09T16:18:23.827Z,14.74
2018-10-09T16:21:27.526Z,14.70
2018-10-09T16:24:31.136Z,14.66
2018-10-09T16:27:34.807Z,14.57
2018-10-09T16:30:38.436Z,14.34
2018-10-09T16:33:42.116Z,14.21
2018-10-09T16:36:45.937Z,14.11
2018-10-09T16:39:49.547Z,14.11
2018-10-09T16:42:53.215Z,14.06
2018-10-09T16:45:56.885Z,13.92
2018-10-09T16:49:00.560Z,14.05
2018-10-09T16:52:04.312Z,14.24
2018-10-09T16:55:08.035Z,14.11
2018-10-09T16:58:11.759Z,13.93
2018-10-09T17:01:15.487Z,13.97
2018-10-09T17:04:19.054Z,13.92
2018-10-09T17:07:22.921Z,14.42
2018-10-09T17:10:26.608Z,14.15
2018-10-09T17:13:30.246Z,14.07
2018-10-09T17:16:33.820Z,13.90
2018-10-09T17:19:37.547Z,13.74
2018-10-09T17:22:41.300Z,13.96
2018-10-09T17:25:44.976Z,13.75
2018-10-09T17:28:48.601Z,13.88
2018-10-09T17:31:52.171Z,13.84
2018-10-09T17:34:55.955Z,13.70
2018-10-09T17:37:59.593Z,13.67
2018-10-09T17:41:03.261Z,13.60
2018-10-09T17:44:06.921Z,13.52
2018-10-09T17:47:10.951Z,13.40
2018-10-09T17:50:14.528Z,13.60
2018-10-09T17:53:18.328Z,13.46
2018-10-09T17:56:21.942Z,13.36
2018-10-09T17:59:25.587Z,13.41
2018-10-09T18:02:29.258Z,13.61
2018-10-09T18:05:33.038Z,13.65
2018-10-09T18:08:36.653Z,13.65
2018-10-09T18:11:40.618Z,13.56
2018-10-09T18:14:44.271Z,13.32
2018-10-09T18:17:48.022Z,13.31
2018-10-09T18:20:51.719Z,13.32
2018-10-09T18:23:55.434Z,13.23
2018-10-09T18:26:59.240Z,13.30
2018-10-09T18:30:02.842Z,13.26
2018-10-09T18:33:06.875Z,13.22
2018-10-09T18:36:11.105Z,13.47
2018-10-09T18:39:16.188Z,13.52
2018-10-09T18:42:19.871Z,13.63
2018-10-09T18:45:23.551Z,13.85
2018-10-09T18:48:27.244Z,13.80
2018-10-09T18:51:31.005Z,13.69
2018-10-09T18:54:34.695Z,13.51
2018-10-09T18:57:38.433Z,13.45
2018-10-09T19:00:42.182Z,13.46
2018-10-09T19:03:45.878Z,13.65
2018-10-09T19:06:49.510Z,13.82
2018-10-09T19:09:53.187Z,13.71
2018-10-09T19:12:57.134Z,13.76
2018-10-09T19:16:00.869Z,13.80
2018-10-09T19:19:04.599Z,13.63
2018-10-09T19:22:08.338Z,13.46
2018-10-09T19:25:12.058Z,13.52
2018-10-09T19:28:15.853Z,13.71
2018-10-09T19:31:19.422Z,13.64
2018-10-09T19:34:23.331Z,13.77
2018-10-09T19:37:27.085Z,14.14
2018-10-09T19:40:30.704Z,14.37
2018-10-09T19:43:34.463Z,14.15
2018-10-09T19:46:38.735Z,13.69
2018-10-09T19:49:42.542Z,13.63
2018-10-09T19:52:46.313Z,13.63
2018-10-09T19:55:50.130Z,13.54
2018-10-09T19:58:55.195Z,13.40
2018-10-09T20:01:58.857Z,13.45
2018-10-09T20:05:02.490Z,13.37
2018-10-09T20:08:06.283Z,13.26
2018-10-09T20:11:09.985Z,13.19
2018-10-09T20:14:14.861Z,13.11
2018-10-09T20:17:18.435Z,13.16
2018-10-09T20:20:22.202Z,13.20
2018-10-09T20:23:25.808Z,13.22
2018-10-09T20:26:29.510Z,13.24
2018-10-09T20:29:33.165Z,13.19
2018-10-09T20:32:36.901Z,13.20
2018-10-09T20:35:40.464Z,13.06
2018-10-09T20:38:48.455Z,13.17
2018-10-09T20:41:53.094Z,13.16
2018-10-09T20:44:56.756Z,13.21
2018-10-09T20:48:00.392Z,13.11
2018-10-09T20:51:04.410Z,13.19
2018-10-09T20:54:08.181Z,13.10
2018-10-09T20:57:11.837Z,12.99
2018-10-09T21:00:15.480Z,12.94
2018-10-09T21:03:19.095Z,12.87
2018-10-09T21:06:22.686Z,12.86
2018-10-09T21:09:26.483Z,12.90
2018-10-09T21:12:30.241Z,12.94
2018-10-09T21:15:40.722Z,12.84
2018-10-09T21:18:44.354Z,12.80
2018-10-09T21:21:47.919Z,12.84
2018-10-09T21:24:51.562Z,12.77
2018-10-09T21:27:55.201Z,12.85
2018-10-09T21:30:58.946Z,12.76
2018-10-09T21:34:02.599Z,12.73
2018-10-09T21:37:06.261Z,12.73
2018-10-09T21:40:09.881Z,12.84
2018-10-09T21:43:13.410Z,12.72
2018-10-09T21:46:17.281Z,13.07
2018-10-09T21:49:22.175Z,12.99
2018-10-09T21:52:25.680Z,12.88
2018-10-09T21:55:29.791Z,12.86
2018-10-09T21:58:33.335Z,13.14
2018-10-09T22:01:36.859Z,12.97
2018-10-09T22:04:40.349Z,12.90
2018-10-09T22:07:43.992Z,12.90
2018-10-09T22:10:47.553Z,12.78
2018-10-09T22:13:51.062Z,12.79
2018-10-09T22:16:54.639Z,12.75
2018-10-09T22:19:58.617Z,12.73
2018-10-09T22:23:02.190Z,12.75
2018-10-09T22:26:05.737Z,12.60
2018-10-09T22:29:09.280Z,12.61
2018-10-09T22:32:12.804Z,12.89
2018-10-09T22:35:16.269Z,12.73
2018-10-09T22:38:19.811Z,12.64
2018-10-09T22:41:23.548Z,12.59
2018-10-09T22:44:27.123Z,12.66
2018-10-09T22:47:30.689Z,12.55
2018-10-09T22:50:34.281Z,12.80
2018-10-09T22:53:37.838Z,12.76
2018-10-09T22:56:41.405Z,12.72
2018-10-09T22:59:44.889Z,12.56
2018-10-09T23:02:48.645Z,12.55
2018-10-09T23:05:52.256Z,12.49
2018-10-09T23:08:55.765Z,12.51
2018-10-09T23:11:59.370Z,12.45
2018-10-09T23:15:02.970Z,12.48
2018-10-09T23:18:06.520Z,12.46
2018-10-09T23:21:10.145Z,12.47
2018-10-09T23:24:13.724Z,12.56
2018-10-09T23:27:17.302Z,12.53
2018-10-09T23:30:20.817Z,12.70
2018-10-09T23:33:24.569Z,12.66
2018-10-09T23:36:28.175Z,12.77
2018-10-09T23:39:32.071Z,12.78
2018-10-09T23:42:35.681Z,12.78
2018-10-09T23:45:39.254Z,13.04
2018-10-09T23:48:42.873Z,13.11
2018-10-09T23:51:46.547Z,13.30
2018-10-09T23:54:50.108Z,13.34
2018-10-09T23:57:53.710Z,13.21
